sensor_id;sensor_type;location;lat;lon;timestamp;P1;durP1;ratioP1;P2;durP2;ratioP2
14992;SDS011;7592;51.088;13.732;2022-12-07T00:01:09;13.93;;;11.17;;
14992;SDS011;7592;51.088;13.732;2022-12-07T00:06:03;13.80;;;10.17;;
14992;SDS011;7592;51.088;13.732;2022-12-07T00:11:03;12.03;;;10.10;;
14992;SDS011;7592;51.088;13.732;2022-12-07T00:16:15;12.93;;;9.93;;
14992;SDS011;7592;51.088;13.732;2022-12-07T00:21:13;12.93;;;9.80;;
14992;SDS011;7592;51.088;13.732;2022-12-07T00:26:09;13.27;;;9.37;;
14992;SDS011;7592;51.088;13.732;2022-12-07T00:31:12;12.43;;;9.47;;
14992;SDS011;7592;51.088;13.732;2022-12-07T00:36:07;13.93;;;10.87;;
14992;SDS011;7592;51.088;13.732;2022-12-07T00:41:04;13.57;;;10.13;;
14992;SDS011;7592;51.088;13.732;2022-12-07T00:45:57;13.33;;;10.20;;
14992;SDS011;7592;51.088;13.732;2022-12-07T00:50:50;13.13;;;9.67;;
14992;SDS011;7592;51.088;13.732;2022-12-07T00:55:42;16.07;;;9.97;;
14992;SDS011;7592;51.088;13.732;2022-12-07T01:00:35;13.10;;;9.33;;
14992;SDS011;7592;51.088;13.732;2022-12-07T01:05:28;14.27;;;10.00;;
14992;SDS011;7592;51.088;13.732;2022-12-07T01:10:20;12.33;;;9.37;;
14992;SDS011;7592;51.088;13.732;2022-12-07T01:15:13;15.10;;;10.83;;
14992;SDS011;7592;51.088;13.732;2022-12-07T01:20:06;12.57;;;10.23;;
14992;SDS011;7592;51.088;13.732;2022-12-07T01:24:59;14.93;;;10.63;;
14992;SDS011;7592;51.088;13.732;2022-12-07T01:29:50;14.80;;;10.33;;
14992;SDS011;7592;51.088;13.732;2022-12-07T01:34:42;14.13;;;10.47;;
14992;SDS011;7592;51.088;13.732;2022-12-07T01:39:35;14.47;;;11.37;;
14992;SDS011;7592;51.088;13.732;2022-12-07T01:44:27;13.47;;;10.50;;
14992;SDS011;7592;51.088;13.732;2022-12-07T01:49:28;15.17;;;9.87;;
14992;SDS011;7592;51.088;13.732;2022-12-07T01:54:33;14.63;;;10.43;;
14992;SDS011;7592;51.088;13.732;2022-12-07T01:59:26;11.70;;;9.43;;
14992;SDS011;7592;51.088;13.732;2022-12-07T02:04:19;12.37;;;10.30;;
14992;SDS011;7592;51.088;13.732;2022-12-07T02:09:21;16.00;;;10.70;;
14992;SDS011;7592;51.088;13.732;2022-12-07T02:14:15;13.07;;;10.30;;
14992;SDS011;7592;51.088;13.732;2022-12-07T02:24:10;13.17;;;9.33;;
14992;SDS011;7592;51.088;13.732;2022-12-07T02:29:31;11.27;;;8.90;;
14992;SDS011;7592;51.088;13.732;2022-12-07T02:34:47;11.77;;;9.03;;
14992;SDS011;7592;51.088;13.732;2022-12-07T02:39:50;11.50;;;9.00;;
14992;SDS011;7592;51.088;13.732;2022-12-07T02:44:46;10.40;;;8.60;;
14992;SDS011;7592;51.088;13.732;2022-12-07T02:49:39;10.37;;;8.53;;
14992;SDS011;7592;51.088;13.732;2022-12-07T02:54:32;10.20;;;8.70;;
14992;SDS011;7592;51.088;13.732;2022-12-07T03:04:33;12.77;;;9.53;;
14992;SDS011;7592;51.088;13.732;2022-12-07T03:10:22;12.80;;;8.90;;
14992;SDS011;7592;51.088;13.732;2022-12-07T03:15:27;13.77;;;10.70;;
14992;SDS011;7592;51.088;13.732;2022-12-07T03:20:41;12.87;;;9.60;;
14992;SDS011;7592;51.088;13.732;2022-12-07T03:25:38;13.67;;;9.07;;
14992;SDS011;7592;51.088;13.732;2022-12-07T03:30:42;12.30;;;10.20;;
14992;SDS011;7592;51.088;13.732;2022-12-07T03:35:43;15.03;;;9.80;;
14992;SDS011;7592;51.088;13.732;2022-12-07T03:40:49;17.00;;;10.27;;
14992;SDS011;7592;51.088;13.732;2022-12-07T03:51:40;16.37;;;11.03;;
14992;SDS011;7592;51.088;13.732;2022-12-07T03:56:14;13.83;;;10.80;;
14992;SDS011;7592;51.088;13.732;2022-12-07T04:01:07;16.53;;;10.13;;
14992;SDS011;7592;51.088;13.732;2022-12-07T04:05:58;12.80;;;10.40;;
14992;SDS011;7592;51.088;13.732;2022-12-07T04:10:51;13.40;;;9.97;;
14992;SDS011;7592;51.088;13.732;2022-12-07T04:15:44;14.90;;;11.13;;
14992;SDS011;7592;51.088;13.732;2022-12-07T04:20:36;13.27;;;9.93;;
14992;SDS011;7592;51.088;13.732;2022-12-07T04:25:28;16.30;;;11.40;;
14992;SDS011;7592;51.088;13.732;2022-12-07T04:30:20;14.47;;;10.43;;
14992;SDS011;7592;51.088;13.732;2022-12-07T04:35:12;14.73;;;10.53;;
14992;SDS011;7592;51.088;13.732;2022-12-07T04:40:05;19.67;;;14.00;;
14992;SDS011;7592;51.088;13.732;2022-12-07T04:44:59;17.27;;;11.90;;
14992;SDS011;7592;51.088;13.732;2022-12-07T04:49:51;21.33;;;14.00;;
14992;SDS011;7592;51.088;13.732;2022-12-07T04:54:43;22.37;;;16.53;;
14992;SDS011;7592;51.088;13.732;2022-12-07T04:59:35;22.40;;;15.20;;
14992;SDS011;7592;51.088;13.732;2022-12-07T05:04:34;25.77;;;17.43;;
14992;SDS011;7592;51.088;13.732;2022-12-07T05:09:26;26.20;;;16.07;;
14992;SDS011;7592;51.088;13.732;2022-12-07T05:14:18;21.57;;;14.90;;
14992;SDS011;7592;51.088;13.732;2022-12-07T05:19:11;24.60;;;15.83;;
14992;SDS011;7592;51.088;13.732;2022-12-07T05:24:04;22.13;;;14.43;;
14992;SDS011;7592;51.088;13.732;2022-12-07T05:28:57;21.83;;;13.97;;
14992;SDS011;7592;51.088;13.732;2022-12-07T05:33:49;18.93;;;14.00;;
14992;SDS011;7592;51.088;13.732;2022-12-07T05:38:41;15.93;;;11.47;;
14992;SDS011;7592;51.088;13.732;2022-12-07T05:43:33;14.40;;;10.00;;
14992;SDS011;7592;51.088;13.732;2022-12-07T05:48:25;11.37;;;9.03;;
14992;SDS011;7592;51.088;13.732;2022-12-07T05:53:18;10.10;;;7.93;;
14992;SDS011;7592;51.088;13.732;2022-12-07T05:58:13;8.83;;;6.43;;
14992;SDS011;7592;51.088;13.732;2022-12-07T06:03:25;9.60;;;7.60;;
14992;SDS011;7592;51.088;13.732;2022-12-07T06:08:17;8.80;;;6.87;;
14992;SDS011;7592;51.088;13.732;2022-12-07T06:13:09;10.77;;;7.10;;
14992;SDS011;7592;51.088;13.732;2022-12-07T06:18:01;8.47;;;6.73;;
14992;SDS011;7592;51.088;13.732;2022-12-07T06:22:53;9.00;;;6.53;;
14992;SDS011;7592;51.088;13.732;2022-12-07T06:27:45;8.27;;;6.13;;
14992;SDS011;7592;51.088;13.732;2022-12-07T06:32:37;7.43;;;5.63;;
14992;SDS011;7592;51.088;13.732;2022-12-07T06:37:29;5.37;;;4.87;;
14992;SDS011;7592;51.088;13.732;2022-12-07T06:42:21;5.00;;;4.50;;
14992;SDS011;7592;51.088;13.732;2022-12-07T06:47:13;5.53;;;4.93;;
14992;SDS011;7592;51.088;13.732;2022-12-07T06:52:25;6.87;;;5.20;;
14992;SDS011;7592;51.088;13.732;2022-12-07T06:57:17;7.23;;;4.97;;
14992;SDS011;7592;51.088;13.732;2022-12-07T07:02:09;5.37;;;4.73;;
14992;SDS011;7592;51.088;13.732;2022-12-07T07:07:01;6.13;;;5.37;;
14992;SDS011;7592;51.088;13.732;2022-12-07T07:11:53;6.40;;;5.00;;
14992;SDS011;7592;51.088;13.732;2022-12-07T07:16:45;6.03;;;5.40;;
14992;SDS011;7592;51.088;13.732;2022-12-07T07:21:38;7.00;;;5.53;;
14992;SDS011;7592;51.088;13.732;2022-12-07T07:26:31;6.87;;;5.40;;
14992;SDS011;7592;51.088;13.732;2022-12-07T07:31:23;5.43;;;4.77;;
14992;SDS011;7592;51.088;13.732;2022-12-07T07:36:15;7.33;;;5.10;;
14992;SDS011;7592;51.088;13.732;2022-12-07T07:41:07;7.17;;;5.93;;
14992;SDS011;7592;51.088;13.732;2022-12-07T07:45:59;6.43;;;5.83;;
14992;SDS011;7592;51.088;13.732;2022-12-07T07:50:51;7.60;;;5.23;;
14992;SDS011;7592;51.088;13.732;2022-12-07T07:55:50;6.00;;;5.40;;
14992;SDS011;7592;51.088;13.732;2022-12-07T08:00:43;5.97;;;4.60;;
14992;SDS011;7592;51.088;13.732;2022-12-07T08:05:36;8.90;;;5.70;;
14992;SDS011;7592;51.088;13.732;2022-12-07T08:10:29;7.90;;;6.20;;
14992;SDS011;7592;51.088;13.732;2022-12-07T08:15:23;6.73;;;5.63;;
14992;SDS011;7592;51.088;13.732;2022-12-07T08:20:16;8.10;;;6.30;;
14992;SDS011;7592;51.088;13.732;2022-12-07T08:25:08;7.37;;;6.67;;
14992;SDS011;7592;51.088;13.732;2022-12-07T08:30:00;7.23;;;6.50;;
14992;SDS011;7592;51.088;13.732;2022-12-07T08:34:53;8.03;;;6.87;;
14992;SDS011;7592;51.088;13.732;2022-12-07T08:39:45;12.23;;;6.53;;
14992;SDS011;7592;51.088;13.732;2022-12-07T08:44:37;8.27;;;7.40;;
14992;SDS011;7592;51.088;13.732;2022-12-07T08:49:39;11.20;;;6.57;;
14992;SDS011;7592;51.088;13.732;2022-12-07T08:54:35;8.37;;;6.77;;
14992;SDS011;7592;51.088;13.732;2022-12-07T08:59:29;8.60;;;7.40;;
14992;SDS011;7592;51.088;13.732;2022-12-07T09:04:22;9.03;;;6.07;;
14992;SDS011;7592;51.088;13.732;2022-12-07T09:09:14;8.30;;;7.10;;
14992;SDS011;7592;51.088;13.732;2022-12-07T09:14:06;10.00;;;6.67;;
14992;SDS011;7592;51.088;13.732;2022-12-07T09:18:58;5.97;;;4.77;;
14992;SDS011;7592;51.088;13.732;2022-12-07T09:23:50;6.07;;;5.30;;
14992;SDS011;7592;51.088;13.732;2022-12-07T09:28:42;6.60;;;5.03;;
14992;SDS011;7592;51.088;13.732;2022-12-07T09:33:34;5.60;;;5.00;;
14992;SDS011;7592;51.088;13.732;2022-12-07T09:38:27;8.87;;;5.13;;
14992;SDS011;7592;51.088;13.732;2022-12-07T09:43:24;5.70;;;5.10;;
14992;SDS011;7592;51.088;13.732;2022-12-07T09:48:38;6.90;;;5.10;;
14992;SDS011;7592;51.088;13.732;2022-12-07T09:53:32;6.50;;;4.53;;
14992;SDS011;7592;51.088;13.732;2022-12-07T09:58:28;5.60;;;4.97;;
14992;SDS011;7592;51.088;13.732;2022-12-07T10:03:21;4.33;;;3.93;;
14992;SDS011;7592;51.088;13.732;2022-12-07T10:08:13;3.83;;;3.33;;
14992;SDS011;7592;51.088;13.732;2022-12-07T10:13:09;5.10;;;4.00;;
14992;SDS011;7592;51.088;13.732;2022-12-07T10:18:02;5.77;;;3.90;;
14992;SDS011;7592;51.088;13.732;2022-12-07T10:22:59;4.77;;;4.20;;
14992;SDS011;7592;51.088;13.732;2022-12-07T10:27:57;5.47;;;3.67;;
14992;SDS011;7592;51.088;13.732;2022-12-07T10:33:08;4.73;;;3.47;;
14992;SDS011;7592;51.088;13.732;2022-12-07T10:38:19;5.13;;;3.40;;
14992;SDS011;7592;51.088;13.732;2022-12-07T11:08:44;5.10;;;4.60;;
14992;SDS011;7592;51.088;13.732;2022-12-07T11:13:41;8.03;;;5.20;;
14992;SDS011;7592;51.088;13.732;2022-12-07T11:18:43;6.03;;;5.00;;
14992;SDS011;7592;51.088;13.732;2022-12-07T11:29:19;5.30;;;4.80;;
14992;SDS011;7592;51.088;13.732;2022-12-07T11:49:41;5.27;;;4.10;;
14992;SDS011;7592;51.088;13.732;2022-12-07T11:54:40;7.00;;;5.03;;
14992;SDS011;7592;51.088;13.732;2022-12-07T11:59:42;7.40;;;5.20;;
14992;SDS011;7592;51.088;13.732;2022-12-07T12:10:21;10.00;;;6.77;;
14992;SDS011;7592;51.088;13.732;2022-12-07T12:21:07;6.97;;;6.00;;
14992;SDS011;7592;51.088;13.732;2022-12-07T12:31:14;14.00;;;6.40;;
14992;SDS011;7592;51.088;13.732;2022-12-07T12:51:38;7.23;;;5.83;;
14992;SDS011;7592;51.088;13.732;2022-12-07T12:56:37;4.23;;;3.60;;
14992;SDS011;7592;51.088;13.732;2022-12-07T13:01:38;4.83;;;2.80;;
14992;SDS011;7592;51.088;13.732;2022-12-07T13:06:34;2.57;;;1.80;;
14992;SDS011;7592;51.088;13.732;2022-12-07T13:11:31;2.43;;;1.17;;
14992;SDS011;7592;51.088;13.732;2022-12-07T13:16:36;3.50;;;1.17;;
14992;SDS011;7592;51.088;13.732;2022-12-07T13:26:27;2.80;;;1.60;;
14992;SDS011;7592;51.088;13.732;2022-12-07T13:31:41;1.37;;;1.10;;
14992;SDS011;7592;51.088;13.732;2022-12-07T13:36:38;1.47;;;1.37;;
14992;SDS011;7592;51.088;13.732;2022-12-07T13:41:31;1.83;;;1.70;;
14992;SDS011;7592;51.088;13.732;2022-12-07T13:46:25;3.23;;;1.80;;
14992;SDS011;7592;51.088;13.732;2022-12-07T13:51:24;4.03;;;3.20;;
14992;SDS011;7592;51.088;13.732;2022-12-07T13:56:18;3.03;;;2.70;;
14992;SDS011;7592;51.088;13.732;2022-12-07T14:01:13;3.57;;;3.23;;
14992;SDS011;7592;51.088;13.732;2022-12-07T14:06:17;4.83;;;3.33;;
14992;SDS011;7592;51.088;13.732;2022-12-07T14:11:21;5.90;;;4.20;;
14992;SDS011;7592;51.088;13.732;2022-12-07T14:16:23;8.30;;;4.87;;
14992;SDS011;7592;51.088;13.732;2022-12-07T14:21:20;6.90;;;6.20;;
14992;SDS011;7592;51.088;13.732;2022-12-07T14:26:20;9.27;;;7.00;;
14992;SDS011;7592;51.088;13.732;2022-12-07T14:31:13;7.20;;;5.63;;
14992;SDS011;7592;51.088;13.732;2022-12-07T14:36:19;21.90;;;17.33;;
14992;SDS011;7592;51.088;13.732;2022-12-07T14:41:23;11.20;;;9.30;;
14992;SDS011;7592;51.088;13.732;2022-12-07T14:46:34;9.17;;;7.83;;
14992;SDS011;7592;51.088;13.732;2022-12-07T14:51:26;13.80;;;11.20;;
14992;SDS011;7592;51.088;13.732;2022-12-07T14:56:38;16.33;;;12.07;;
14992;SDS011;7592;51.088;13.732;2022-12-07T15:01:30;13.53;;;12.17;;
14992;SDS011;7592;51.088;13.732;2022-12-07T15:06:22;10.07;;;9.07;;
14992;SDS011;7592;51.088;13.732;2022-12-07T15:11:14;6.97;;;6.33;;
14992;SDS011;7592;51.088;13.732;2022-12-07T15:16:09;7.77;;;7.00;;
14992;SDS011;7592;51.088;13.732;2022-12-07T15:21:04;10.10;;;9.10;;
14992;SDS011;7592;51.088;13.732;2022-12-07T15:25:56;9.27;;;8.17;;
14992;SDS011;7592;51.088;13.732;2022-12-07T15:30:48;9.93;;;7.20;;
14992;SDS011;7592;51.088;13.732;2022-12-07T15:35:44;9.97;;;6.77;;
14992;SDS011;7592;51.088;13.732;2022-12-07T15:40:36;8.10;;;5.83;;
14992;SDS011;7592;51.088;13.732;2022-12-07T15:45:28;14.50;;;10.20;;
14992;SDS011;7592;51.088;13.732;2022-12-07T15:50:21;6.13;;;5.10;;
14992;SDS011;7592;51.088;13.732;2022-12-07T15:55:13;11.50;;;10.43;;
14992;SDS011;7592;51.088;13.732;2022-12-07T16:00:06;13.50;;;9.50;;
14992;SDS011;7592;51.088;13.732;2022-12-07T16:05:01;11.47;;;8.70;;
14992;SDS011;7592;51.088;13.732;2022-12-07T16:09:55;14.30;;;8.97;;
14992;SDS011;7592;51.088;13.732;2022-12-07T16:14:48;10.50;;;8.30;;
14992;SDS011;7592;51.088;13.732;2022-12-07T16:19:40;10.33;;;7.73;;
14992;SDS011;7592;51.088;13.732;2022-12-07T16:24:32;13.27;;;9.43;;
14992;SDS011;7592;51.088;13.732;2022-12-07T16:29:24;24.13;;;15.93;;
14992;SDS011;7592;51.088;13.732;2022-12-07T16:34:17;19.87;;;13.47;;
14992;SDS011;7592;51.088;13.732;2022-12-07T16:39:10;19.83;;;13.43;;
14992;SDS011;7592;51.088;13.732;2022-12-07T16:44:03;16.53;;;10.07;;
14992;SDS011;7592;51.088;13.732;2022-12-07T16:48:56;15.57;;;9.87;;
14992;SDS011;7592;51.088;13.732;2022-12-07T16:53:48;9.87;;;6.77;;
14992;SDS011;7592;51.088;13.732;2022-12-07T16:58:44;6.27;;;4.87;;
14992;SDS011;7592;51.088;13.732;2022-12-07T17:03:37;5.40;;;2.80;;
14992;SDS011;7592;51.088;13.732;2022-12-07T17:08:29;7.17;;;4.80;;
14992;SDS011;7592;51.088;13.732;2022-12-07T17:13:22;4.27;;;3.00;;
14992;SDS011;7592;51.088;13.732;2022-12-07T17:18:34;6.50;;;2.53;;
14992;SDS011;7592;51.088;13.732;2022-12-07T17:23:27;5.73;;;4.40;;
14992;SDS011;7592;51.088;13.732;2022-12-07T17:28:19;8.83;;;6.77;;
14992;SDS011;7592;51.088;13.732;2022-12-07T17:33:11;5.23;;;2.97;;
14992;SDS011;7592;51.088;13.732;2022-12-07T17:38:04;3.33;;;3.10;;
14992;SDS011;7592;51.088;13.732;2022-12-07T17:42:56;5.13;;;2.73;;
14992;SDS011;7592;51.088;13.732;2022-12-07T17:47:48;4.90;;;2.57;;
14992;SDS011;7592;51.088;13.732;2022-12-07T17:52:40;3.67;;;1.90;;
14992;SDS011;7592;51.088;13.732;2022-12-07T17:57:50;3.07;;;2.27;;
14992;SDS011;7592;51.088;13.732;2022-12-07T18:02:42;5.13;;;2.50;;
14992;SDS011;7592;51.088;13.732;2022-12-07T18:07:34;5.50;;;2.97;;
14992;SDS011;7592;51.088;13.732;2022-12-07T18:12:26;3.10;;;2.67;;
14992;SDS011;7592;51.088;13.732;2022-12-07T18:17:18;3.27;;;2.20;;
14992;SDS011;7592;51.088;13.732;2022-12-07T18:22:10;3.80;;;1.83;;
14992;SDS011;7592;51.088;13.732;2022-12-07T18:27:03;3.60;;;1.97;;
14992;SDS011;7592;51.088;13.732;2022-12-07T18:31:57;3.93;;;2.23;;
14992;SDS011;7592;51.088;13.732;2022-12-07T18:36:50;6.73;;;2.90;;
14992;SDS011;7592;51.088;13.732;2022-12-07T18:41:42;4.47;;;2.80;;
14992;SDS011;7592;51.088;13.732;2022-12-07T18:46:34;4.53;;;2.73;;
14992;SDS011;7592;51.088;13.732;2022-12-07T18:51:26;4.93;;;2.57;;
14992;SDS011;7592;51.088;13.732;2022-12-07T18:56:23;3.47;;;2.30;;
14992;SDS011;7592;51.088;13.732;2022-12-07T19:01:16;3.80;;;2.53;;
14992;SDS011;7592;51.088;13.732;2022-12-07T19:06:08;3.57;;;2.60;;
14992;SDS011;7592;51.088;13.732;2022-12-07T19:11:00;2.70;;;2.10;;
14992;SDS011;7592;51.088;13.732;2022-12-07T19:16:14;5.73;;;2.20;;
14992;SDS011;7592;51.088;13.732;2022-12-07T19:21:06;3.63;;;2.30;;
14992;SDS011;7592;51.088;13.732;2022-12-07T19:25:59;4.33;;;2.00;;
14992;SDS011;7592;51.088;13.732;2022-12-07T19:30:51;3.70;;;2.00;;
14992;SDS011;7592;51.088;13.732;2022-12-07T19:35:44;2.60;;;2.40;;
14992;SDS011;7592;51.088;13.732;2022-12-07T19:40:36;6.13;;;3.53;;
14992;SDS011;7592;51.088;13.732;2022-12-07T19:45:28;6.77;;;3.13;;
14992;SDS011;7592;51.088;13.732;2022-12-07T19:50:23;7.33;;;3.80;;
14992;SDS011;7592;51.088;13.732;2022-12-07T19:55:15;6.57;;;3.87;;
14992;SDS011;7592;51.088;13.732;2022-12-07T20:00:07;8.30;;;5.93;;
14992;SDS011;7592;51.088;13.732;2022-12-07T20:05:00;7.10;;;5.50;;
14992;SDS011;7592;51.088;13.732;2022-12-07T20:09:58;11.83;;;6.07;;
14992;SDS011;7592;51.088;13.732;2022-12-07T20:14:50;10.20;;;6.00;;
14992;SDS011;7592;51.088;13.732;2022-12-07T20:19:42;10.20;;;5.07;;
14992;SDS011;7592;51.088;13.732;2022-12-07T20:24:34;6.87;;;5.73;;
14992;SDS011;7592;51.088;13.732;2022-12-07T20:29:26;10.23;;;4.70;;
14992;SDS011;7592;51.088;13.732;2022-12-07T20:34:19;4.00;;;3.63;;
14992;SDS011;7592;51.088;13.732;2022-12-07T20:39:11;3.83;;;3.30;;
14992;SDS011;7592;51.088;13.732;2022-12-07T20:44:03;10.63;;;4.60;;
14992;SDS011;7592;51.088;13.732;2022-12-07T20:48:59;5.20;;;3.77;;
14992;SDS011;7592;51.088;13.732;2022-12-07T20:53:52;5.73;;;4.10;;
14992;SDS011;7592;51.088;13.732;2022-12-07T20:58:44;5.47;;;3.50;;
14992;SDS011;7592;51.088;13.732;2022-12-07T21:03:37;6.03;;;4.30;;
14992;SDS011;7592;51.088;13.732;2022-12-07T21:08:29;6.90;;;4.33;;
14992;SDS011;7592;51.088;13.732;2022-12-07T21:13:21;6.17;;;4.77;;
14992;SDS011;7592;51.088;13.732;2022-12-07T21:18:13;9.43;;;5.17;;
14992;SDS011;7592;51.088;13.732;2022-12-07T21:23:05;7.87;;;4.63;;
14992;SDS011;7592;51.088;13.732;2022-12-07T21:27:57;7.47;;;4.67;;
14992;SDS011;7592;51.088;13.732;2022-12-07T21:32:49;7.53;;;4.50;;
14992;SDS011;7592;51.088;13.732;2022-12-07T21:37:41;12.43;;;5.20;;
14992;SDS011;7592;51.088;13.732;2022-12-07T21:42:33;8.07;;;4.10;;
14992;SDS011;7592;51.088;13.732;2022-12-07T21:47:25;12.40;;;5.23;;
14992;SDS011;7592;51.088;13.732;2022-12-07T21:52:17;8.60;;;5.40;;
14992;SDS011;7592;51.088;13.732;2022-12-07T21:57:09;9.60;;;6.47;;
14992;SDS011;7592;51.088;13.732;2022-12-07T22:02:01;8.17;;;6.33;;
14992;SDS011;7592;51.088;13.732;2022-12-07T22:06:54;8.17;;;6.60;;
14992;SDS011;7592;51.088;13.732;2022-12-07T22:11:47;13.97;;;8.50;;
14992;SDS011;7592;51.088;13.732;2022-12-07T22:16:39;9.00;;;5.40;;
14992;SDS011;7592;51.088;13.732;2022-12-07T22:21:32;9.10;;;5.83;;
14992;SDS011;7592;51.088;13.732;2022-12-07T22:26:24;10.53;;;6.07;;
14992;SDS011;7592;51.088;13.732;2022-12-07T22:31:18;9.97;;;6.17;;
14992;SDS011;7592;51.088;13.732;2022-12-07T22:36:11;9.97;;;7.27;;
14992;SDS011;7592;51.088;13.732;2022-12-07T22:41:11;10.70;;;6.00;;
14992;SDS011;7592;51.088;13.732;2022-12-07T22:46:03;8.77;;;6.27;;
14992;SDS011;7592;51.088;13.732;2022-12-07T22:50:56;7.77;;;5.13;;
14992;SDS011;7592;51.088;13.732;2022-12-07T22:55:48;8.00;;;5.27;;
14992;SDS011;7592;51.088;13.732;2022-12-07T23:00:40;6.70;;;4.90;;
14992;SDS011;7592;51.088;13.732;2022-12-07T23:05:39;8.00;;;4.23;;
14992;SDS011;7592;51.088;13.732;2022-12-07T23:10:33;7.73;;;4.40;;
14992;SDS011;7592;51.088;13.732;2022-12-07T23:15:25;9.00;;;4.33;;
14992;SDS011;7592;51.088;13.732;2022-12-07T23:20:17;5.43;;;3.73;;
14992;SDS011;7592;51.088;13.732;2022-12-07T23:25:10;5.47;;;4.20;;
14992;SDS011;7592;51.088;13.732;2022-12-07T23:30:05;6.23;;;3.53;;
14992;SDS011;7592;51.088;13.732;2022-12-07T23:34:57;7.13;;;3.70;;
14992;SDS011;7592;51.088;13.732;2022-12-07T23:39:49;5.10;;;3.67;;
14992;SDS011;7592;51.088;13.732;2022-12-07T23:44:41;6.40;;;3.40;;
14992;SDS011;7592;51.088;13.732;2022-12-07T23:49:33;5.90;;;3.57;;
14992;SDS011;7592;51.088;13.732;2022-12-07T23:54:25;6.93;;;3.33;;
14992;SDS011;7592;51.088;13.732;2022-12-07T23:59:17;6.03;;;3.10;;
